createdAt,value
2018-08-06T00:01:16.988Z,20.39
2018-08-06T00:03:47.677Z,20.36
2018-08-06T00:06:18.362Z,20.34
2018-08-06T00:08:49.063Z,20.32
2018-08-06T00:11:19.767Z,20.28
2018-08-06T00:13:50.629Z,20.27
2018-08-06T00:16:21.371Z,20.23
2018-08-06T00:18:52.403Z,20.23
2018-08-06T00:21:23.131Z,20.20
2018-08-06T00:23:53.861Z,19.99
2018-08-06T00:26:24.594Z,19.94
2018-08-06T00:28:55.275Z,19.89
2018-08-06T00:31:26.064Z,19.95
2018-08-06T00:33:56.747Z,19.92
2018-08-06T00:36:27.435Z,19.97
2018-08-06T00:38:58.134Z,19.94
2018-08-06T00:41:28.937Z,19.90
2018-08-06T00:43:59.625Z,19.83
2018-08-06T00:46:30.309Z,19.86
2018-08-06T00:49:01.036Z,19.83
2018-08-06T00:51:31.724Z,19.71
2018-08-06T00:54:02.546Z,19.62
2018-08-06T00:56:33.202Z,19.52
2018-08-06T00:59:03.908Z,19.46
2018-08-06T01:01:34.561Z,19.49
2018-08-06T01:04:05.329Z,19.47
2018-08-06T01:06:35.988Z,19.40
2018-08-06T01:09:10.155Z,19.29
2018-08-06T01:11:40.800Z,19.31
2018-08-06T01:14:11.539Z,19.31
2018-08-06T01:16:42.452Z,19.32
2018-08-06T01:19:13.170Z,19.29
2018-08-06T01:21:43.895Z,19.20
2018-08-06T01:24:14.651Z,19.10
2018-08-06T01:26:45.315Z,19.02
2018-08-06T01:29:15.982Z,18.96
2018-08-06T01:31:46.672Z,18.89
2018-08-06T01:34:17.380Z,18.85
2018-08-06T01:36:47.718Z,18.81
2018-08-06T01:39:18.291Z,18.74
2018-08-06T01:41:49.020Z,18.72
2018-08-06T01:44:19.714Z,18.68
2018-08-06T01:46:50.414Z,18.60
2018-08-06T01:49:21.065Z,18.61
2018-08-06T01:51:51.699Z,18.66
2018-08-06T01:54:22.410Z,18.63
2018-08-06T01:56:53.108Z,18.57
2018-08-06T01:59:23.765Z,18.61
2018-08-06T02:01:54.382Z,18.57
2018-08-06T02:04:25.068Z,18.54
2018-08-06T02:06:55.724Z,18.47
2018-08-06T02:09:26.392Z,18.49
2018-08-06T02:11:57.045Z,18.49
2018-08-06T02:14:27.795Z,18.45
2018-08-06T02:16:58.467Z,18.41
2018-08-06T02:19:29.115Z,18.34
2018-08-06T02:21:59.862Z,18.30
2018-08-06T02:24:30.667Z,18.24
2018-08-06T02:27:01.342Z,18.23
2018-08-06T02:29:32.067Z,18.28
2018-08-06T02:32:02.769Z,18.23
2018-08-06T02:34:33.446Z,18.20
2018-08-06T02:37:04.257Z,18.19
2018-08-06T02:39:34.937Z,18.21
2018-08-06T02:42:05.792Z,18.11
2018-08-06T02:44:36.477Z,18.04
2018-08-06T02:47:07.639Z,17.97
2018-08-06T02:49:38.359Z,17.96
2018-08-06T02:52:09.108Z,18.03
2018-08-06T02:54:39.786Z,18.02
2018-08-06T02:57:10.465Z,17.97
2018-08-06T02:59:41.203Z,17.93
2018-08-06T03:02:11.942Z,17.91
2018-08-06T03:04:42.657Z,17.84
2018-08-06T03:07:13.446Z,17.85
2018-08-06T03:09:44.321Z,17.82
2018-08-06T03:12:15.084Z,17.81
2018-08-06T03:14:45.763Z,17.82
2018-08-06T03:17:16.441Z,17.79
2018-08-06T03:19:47.107Z,17.74
2018-08-06T03:22:17.831Z,17.71
2018-08-06T03:24:48.507Z,17.71
2018-08-06T03:27:19.223Z,17.62
2018-08-06T03:29:49.936Z,17.54
2018-08-06T03:32:20.855Z,17.51
2018-08-06T03:34:51.525Z,17.46
2018-08-06T03:37:22.251Z,17.56
2018-08-06T03:39:52.733Z,17.53
2018-08-06T03:42:23.472Z,17.47
2018-08-06T03:44:54.180Z,17.41
2018-08-06T03:47:24.906Z,17.34
2018-08-06T03:49:55.543Z,17.32
2018-08-06T03:52:26.233Z,17.26
2018-08-06T03:54:56.950Z,17.20
2018-08-06T03:57:27.621Z,17.20
2018-08-06T03:59:58.334Z,17.16
2018-08-06T04:02:29.038Z,17.19
2018-08-06T04:04:59.689Z,17.20
2018-08-06T04:07:30.412Z,17.22
2018-08-06T04:10:01.096Z,17.22
2018-08-06T04:12:31.897Z,17.30
2018-08-06T04:15:02.613Z,17.33
2018-08-06T04:17:33.320Z,17.30
2018-08-06T04:20:04.065Z,17.32
2018-08-06T04:22:34.786Z,17.32
2018-08-06T04:25:05.774Z,17.32
2018-08-06T04:27:36.809Z,17.27
2018-08-06T04:30:11.603Z,17.23
2018-08-06T04:32:42.498Z,17.22
2018-08-06T04:35:13.256Z,17.22
2018-08-06T04:37:44.707Z,17.20
2018-08-06T04:40:15.526Z,17.22
2018-08-06T04:42:46.203Z,17.19
2018-08-06T04:45:16.948Z,17.21
2018-08-06T04:47:47.654Z,17.22
2018-08-06T04:50:18.443Z,17.25
2018-08-06T04:52:49.142Z,17.28
2018-08-06T04:55:19.903Z,17.31
2018-08-06T04:57:50.653Z,17.29
2018-08-06T05:00:21.399Z,17.26
2018-08-06T05:02:52.149Z,17.31
2018-08-06T05:05:22.870Z,17.30
2018-08-06T05:07:54.088Z,17.35
2018-08-06T05:10:24.863Z,17.32
2018-08-06T05:12:55.544Z,17.32
2018-08-06T05:15:26.249Z,17.37
2018-08-06T05:17:56.989Z,17.42
2018-08-06T05:20:27.677Z,17.53
2018-08-06T05:22:58.424Z,17.56
2018-08-06T05:25:28.875Z,17.60
2018-08-06T05:28:00.594Z,17.74
2018-08-06T05:30:31.693Z,17.83
2018-08-06T05:33:02.662Z,17.89
2018-08-06T05:35:33.414Z,18.03
2018-08-06T05:38:04.867Z,18.32
2018-08-06T05:40:35.680Z,18.52
2018-08-06T05:43:06.605Z,18.72
2018-08-06T05:45:37.647Z,18.92
2018-08-06T05:48:08.499Z,18.98
2018-08-06T05:50:39.319Z,18.94
2018-08-06T05:53:10.049Z,19.01
2018-08-06T05:55:40.803Z,18.98
2018-08-06T05:58:11.668Z,19.11
2018-08-06T06:00:42.391Z,19.29
2018-08-06T06:03:13.236Z,19.44
2018-08-06T06:05:44.050Z,19.53
2018-08-06T06:08:14.837Z,19.66
2018-08-06T06:10:45.676Z,19.72
2018-08-06T06:13:16.465Z,19.88
2018-08-06T06:15:47.237Z,20.00
2018-08-06T06:18:18.057Z,20.23
2018-08-06T06:20:49.009Z,20.21
2018-08-06T06:29:29.008Z,20.33
2018-08-06T06:31:59.961Z,20.40
2018-08-06T06:34:30.783Z,20.48
2018-08-06T06:37:01.519Z,20.60
2018-08-06T06:39:32.392Z,20.70
2018-08-06T06:42:03.490Z,20.73
2018-08-06T06:44:34.369Z,20.84
2018-08-06T06:47:05.301Z,21.06
2018-08-06T06:49:36.140Z,21.08
2018-08-06T06:52:07.126Z,21.20
2018-08-06T06:54:37.883Z,21.25
2018-08-06T06:57:08.758Z,21.33
2018-08-06T06:59:39.487Z,21.52
2018-08-06T07:02:10.449Z,21.71
2018-08-06T07:04:41.372Z,21.99
2018-08-06T07:07:12.272Z,22.16
2018-08-06T07:09:43.079Z,22.39
2018-08-06T07:12:14.091Z,22.57
2018-08-06T07:14:44.979Z,22.73
2018-08-06T07:17:15.463Z,22.99
2018-08-06T07:19:46.238Z,23.07
2018-08-06T07:22:16.973Z,23.34
2018-08-06T07:24:47.800Z,23.44
2018-08-06T07:27:18.483Z,23.61
2018-08-06T07:29:49.162Z,23.82
2018-08-06T07:32:19.899Z,23.88
2018-08-06T07:34:50.584Z,24.00
2018-08-06T07:37:21.265Z,24.09
2018-08-06T07:39:51.947Z,24.34
2018-08-06T07:42:22.656Z,24.54
2018-08-06T07:44:53.377Z,24.67
2018-08-06T07:47:24.091Z,24.83
2018-08-06T07:49:54.839Z,25.06
2018-08-06T07:52:25.594Z,25.11
2018-08-06T07:54:56.295Z,25.41
2018-08-06T07:57:26.982Z,25.66
2018-08-06T07:59:57.643Z,25.84
2018-08-06T08:02:28.385Z,26.05
2018-08-06T08:04:59.147Z,26.13
2018-08-06T08:07:29.983Z,26.22
2018-08-06T08:10:00.659Z,26.38
2018-08-06T08:12:31.456Z,26.60
2018-08-06T08:15:02.155Z,26.90
2018-08-06T08:17:32.872Z,27.17
2018-08-06T08:20:03.783Z,27.38
2018-08-06T08:22:34.631Z,27.34
2018-08-06T08:25:07.497Z,27.48
2018-08-06T08:27:38.245Z,27.81
2018-08-06T08:30:11.044Z,28.02
2018-08-06T08:32:41.712Z,28.29
2018-08-06T08:35:13.784Z,28.48
2018-08-06T08:37:44.627Z,28.73
2018-08-06T08:40:18.124Z,28.99
2018-08-06T08:42:48.845Z,29.32
2018-08-06T08:45:19.652Z,29.58
2018-08-06T08:47:50.418Z,29.68
2018-08-06T08:50:21.496Z,29.73
2018-08-06T08:52:52.391Z,29.91
2018-08-06T08:55:23.140Z,30.19
2018-08-06T08:57:53.890Z,30.31
2018-08-06T09:00:24.601Z,30.56
2018-08-06T09:02:55.307Z,30.70
2018-08-06T09:05:26.028Z,30.66
2018-08-06T09:07:56.713Z,30.85
2018-08-06T09:10:27.425Z,31.19
2018-08-06T09:12:58.138Z,31.60
2018-08-06T09:15:29.089Z,31.81
2018-08-06T09:17:59.842Z,31.92
2018-08-06T09:20:30.601Z,31.94
2018-08-06T09:23:32.354Z,32.07
2018-08-06T09:26:03.083Z,32.41
2018-08-06T09:28:33.819Z,32.56
2018-08-06T09:31:04.660Z,32.69
2018-08-06T09:33:35.358Z,32.79
2018-08-06T09:36:05.738Z,32.28
2018-08-06T09:38:35.961Z,32.19
2018-08-06T09:41:06.570Z,32.31
2018-08-06T09:43:37.374Z,32.48
2018-08-06T09:46:08.100Z,32.73
2018-08-06T09:48:38.797Z,33.13
2018-08-06T09:51:09.483Z,33.51
2018-08-06T09:53:40.204Z,33.88
2018-08-06T09:56:11.844Z,33.47
2018-08-06T09:58:42.538Z,32.90
2018-08-06T10:01:18.381Z,32.97
2018-08-06T10:03:49.051Z,33.21
2018-08-06T10:06:19.963Z,33.74
2018-08-06T10:08:50.450Z,34.25
2018-08-06T10:11:21.146Z,34.52
2018-08-06T10:13:51.878Z,34.60
2018-08-06T10:16:22.608Z,34.50
2018-08-06T10:18:53.358Z,34.51
2018-08-06T10:21:24.060Z,34.68
2018-08-06T10:23:54.712Z,34.74
2018-08-06T10:26:25.352Z,34.66
2018-08-06T10:28:56.030Z,34.56
2018-08-06T10:31:26.807Z,34.41
2018-08-06T10:33:57.523Z,33.68
2018-08-06T10:36:28.204Z,33.68
2018-08-06T10:38:58.924Z,33.46
2018-08-06T10:41:29.609Z,33.85
2018-08-06T10:44:00.267Z,33.86
2018-08-06T10:46:30.954Z,33.95
2018-08-06T10:49:02.153Z,34.04
2018-08-06T10:51:32.918Z,34.13
2018-08-06T10:54:03.671Z,34.25
2018-08-06T10:56:34.843Z,34.67
2018-08-06T10:59:05.882Z,34.89
2018-08-06T11:01:36.558Z,34.70
2018-08-06T11:04:07.647Z,34.08
2018-08-06T11:06:38.404Z,33.53
2018-08-06T11:09:09.383Z,33.81
2018-08-06T11:11:39.751Z,33.67
2018-08-06T11:14:10.349Z,33.91
2018-08-06T11:16:40.982Z,33.75
2018-08-06T11:19:11.674Z,33.86
2018-08-06T11:21:42.366Z,34.32
2018-08-06T11:24:13.257Z,34.86
2018-08-06T11:26:43.933Z,35.20
2018-08-06T11:29:14.594Z,35.16
2018-08-06T11:31:45.296Z,35.10
2018-08-06T11:34:15.917Z,35.02
2018-08-06T11:36:46.608Z,35.12
2018-08-06T11:39:17.258Z,35.01
2018-08-06T11:41:47.937Z,35.22
2018-08-06T11:44:18.598Z,35.61
2018-08-06T11:46:49.318Z,35.61
2018-08-06T11:49:19.966Z,35.49
2018-08-06T11:51:50.635Z,35.54
2018-08-06T11:54:21.293Z,35.19
2018-08-06T11:56:51.796Z,34.98
2018-08-06T11:59:22.154Z,35.20
2018-08-06T12:01:52.863Z,35.67
2018-08-06T12:04:23.511Z,36.14
2018-08-06T12:06:54.214Z,35.71
2018-08-06T12:09:24.893Z,35.54
2018-08-06T12:11:55.603Z,35.34
2018-08-06T12:14:27.125Z,35.50
2018-08-06T12:16:57.753Z,35.97
2018-08-06T12:19:28.511Z,36.06
2018-08-06T12:21:59.162Z,35.69
2018-08-06T12:24:29.881Z,35.69
2018-08-06T12:27:00.554Z,35.56
2018-08-06T12:29:31.205Z,35.08
2018-08-06T12:32:01.919Z,35.28
2018-08-06T12:34:32.626Z,35.79
2018-08-06T12:37:03.313Z,36.50
2018-08-06T12:39:34.047Z,37.20
2018-08-06T12:42:04.801Z,37.80
2018-08-06T12:44:35.458Z,38.25
2018-08-06T12:47:06.261Z,37.95
2018-08-06T12:49:36.894Z,37.94
2018-08-06T12:52:07.629Z,37.87
2018-08-06T12:54:38.303Z,37.76
2018-08-06T12:57:09.099Z,37.38
2018-08-06T12:59:39.662Z,37.51
2018-08-06T13:02:10.386Z,37.90
2018-08-06T13:04:41.035Z,38.21
2018-08-06T13:07:11.722Z,38.62
2018-08-06T13:09:42.436Z,39.03
2018-08-06T13:12:13.132Z,39.29
2018-08-06T13:14:44.031Z,39.31
2018-08-06T13:17:14.681Z,39.56
2018-08-06T13:19:45.366Z,39.25
2018-08-06T13:22:16.025Z,38.80
2018-08-06T13:24:46.705Z,38.58
2018-08-06T13:27:17.380Z,38.59
2018-08-06T13:29:48.070Z,38.82
2018-08-06T13:32:18.789Z,38.98
2018-08-06T13:34:49.502Z,39.25
2018-08-06T13:37:20.222Z,39.58
2018-08-06T13:39:50.904Z,39.85
2018-08-06T13:42:21.533Z,40.15
2018-08-06T13:44:52.232Z,39.83
2018-08-06T13:47:22.860Z,39.51
2018-08-06T13:49:53.701Z,39.23
2018-08-06T13:52:24.433Z,39.10
2018-08-06T13:54:55.117Z,39.19
2018-08-06T13:57:25.781Z,39.39
2018-08-06T13:59:56.490Z,39.53
2018-08-06T14:02:27.198Z,39.78
2018-08-06T14:04:57.929Z,39.71
2018-08-06T14:07:28.602Z,39.42
2018-08-06T14:09:59.284Z,38.59
2018-08-06T14:12:29.948Z,37.12
2018-08-06T14:15:00.628Z,36.95
2018-08-06T14:17:31.322Z,37.14
2018-08-06T14:20:02.341Z,37.67
2018-08-06T14:22:33.793Z,38.20
2018-08-06T14:25:05.020Z,38.55
2018-08-06T14:27:36.683Z,38.41
2018-08-06T14:30:10.677Z,38.35
2018-08-06T14:32:41.849Z,38.57
2018-08-06T14:35:12.667Z,38.91
2018-08-06T14:37:43.313Z,39.14
2018-08-06T14:40:18.683Z,38.79
2018-08-06T14:42:49.366Z,38.81
2018-08-06T14:45:20.059Z,38.93
2018-08-06T14:47:50.797Z,38.75
2018-08-06T14:50:21.512Z,38.49
2018-08-06T14:52:52.305Z,38.05
2018-08-06T14:55:23.030Z,37.60
2018-08-06T14:57:53.735Z,37.23
2018-08-06T15:00:24.391Z,36.76
2018-08-06T15:02:55.059Z,36.81
2018-08-06T15:05:25.744Z,36.99
2018-08-06T15:07:56.494Z,37.25
2018-08-06T15:10:26.813Z,37.47
2018-08-06T15:12:57.441Z,37.66
2018-08-06T15:15:28.185Z,37.74
2018-08-06T15:17:58.826Z,37.85
2018-08-06T15:20:29.452Z,38.05
2018-08-06T15:23:00.141Z,38.17
2018-08-06T15:25:31.798Z,38.39
2018-08-06T15:28:02.387Z,38.15
2018-08-06T15:30:33.174Z,38.03
2018-08-06T15:33:03.894Z,37.68
2018-08-06T15:35:34.591Z,37.70
2018-08-06T15:38:05.629Z,37.52
2018-08-06T15:41:07.698Z,37.53
2018-08-06T15:43:38.353Z,37.71
2018-08-06T15:46:09.085Z,37.11
2018-08-06T15:48:39.789Z,36.92
2018-08-06T15:51:10.529Z,36.76
2018-08-06T15:53:41.245Z,36.66
2018-08-06T15:56:11.954Z,36.40
2018-08-06T15:58:43.449Z,36.24
2018-08-06T16:01:14.153Z,36.24
2018-08-06T16:03:44.848Z,35.72
2018-08-06T16:06:15.463Z,35.38
2018-08-06T16:08:46.165Z,35.34
2018-08-06T16:11:16.885Z,35.34
2018-08-06T16:13:47.581Z,35.45
2018-08-06T16:16:18.220Z,35.60
2018-08-06T16:18:48.894Z,35.71
2018-08-06T16:21:19.520Z,35.74
2018-08-06T16:23:50.185Z,35.57
2018-08-06T16:26:20.876Z,35.28
2018-08-06T16:28:51.586Z,35.25
2018-08-06T16:31:23.137Z,35.06
2018-08-06T16:33:53.898Z,35.02
2018-08-06T16:36:24.579Z,35.04
2018-08-06T16:38:55.290Z,35.09
2018-08-06T16:41:25.995Z,35.08
2018-08-06T16:43:56.755Z,35.12
2018-08-06T16:46:27.450Z,35.14
2018-08-06T16:48:58.159Z,35.12
2018-08-06T16:51:28.865Z,34.92
2018-08-06T16:53:59.608Z,34.90
2018-08-06T16:56:30.301Z,34.53
2018-08-06T16:59:01.029Z,34.49
2018-08-06T17:01:31.657Z,34.43
2018-08-06T17:04:02.395Z,34.40
2018-08-06T17:06:33.096Z,34.38
2018-08-06T17:09:04.161Z,34.37
2018-08-06T17:11:34.821Z,34.36
2018-08-06T17:14:06.536Z,34.34
2018-08-06T17:16:37.242Z,34.34
2018-08-06T17:19:07.925Z,34.16
2018-08-06T17:21:38.627Z,34.08
2018-08-06T17:24:09.321Z,34.04
2018-08-06T17:26:39.993Z,33.97
2018-08-06T17:29:10.654Z,33.91
2018-08-06T17:31:41.301Z,33.78
2018-08-06T17:34:11.962Z,33.75
2018-08-06T17:36:42.603Z,33.60
2018-08-06T17:39:13.560Z,33.52
2018-08-06T17:41:44.221Z,33.36
2018-08-06T17:44:14.865Z,33.26
2018-08-06T17:46:45.598Z,33.22
2018-08-06T17:49:16.262Z,33.14
2018-08-06T17:51:46.909Z,33.10
2018-08-06T17:54:17.612Z,33.07
2018-08-06T17:56:48.262Z,33.00
2018-08-06T17:59:18.963Z,32.93
2018-08-06T18:01:49.668Z,32.88
2018-08-06T18:04:20.318Z,32.83
2018-08-06T18:06:50.990Z,32.77
2018-08-06T18:09:21.657Z,32.68
2018-08-06T18:11:52.282Z,32.59
2018-08-06T18:14:22.960Z,32.52
2018-08-06T18:16:53.649Z,32.40
2018-08-06T18:19:24.277Z,32.25
2018-08-06T18:21:54.909Z,32.16
2018-08-06T18:24:25.191Z,32.02
2018-08-06T18:26:55.802Z,31.92
2018-08-06T18:29:26.395Z,31.81
2018-08-06T18:31:57.069Z,31.70
2018-08-06T18:34:27.736Z,31.60
2018-08-06T18:36:58.470Z,31.49
2018-08-06T18:39:29.129Z,31.34
2018-08-06T18:41:59.867Z,31.18
2018-08-06T18:44:30.531Z,31.03
2018-08-06T18:47:01.226Z,30.90
2018-08-06T18:49:31.863Z,30.73
2018-08-06T18:52:02.611Z,30.56
2018-08-06T18:54:33.374Z,30.41
2018-08-06T18:57:04.143Z,30.27
2018-08-06T18:59:34.797Z,30.13
2018-08-06T19:02:05.561Z,29.97
2018-08-06T19:04:36.293Z,29.82
2018-08-06T19:07:07.027Z,29.67
2018-08-06T19:09:37.848Z,29.53
2018-08-06T19:12:13.903Z,29.40
2018-08-06T19:14:44.566Z,29.28
2018-08-06T19:17:15.402Z,29.18
2018-08-06T19:19:46.093Z,29.04
2018-08-06T19:22:17.538Z,28.92
2018-08-06T19:24:53.075Z,28.80
2018-08-06T19:27:23.593Z,28.68
2018-08-06T19:29:54.380Z,28.57
2018-08-06T19:32:26.062Z,28.45
2018-08-06T19:34:56.736Z,28.32
2018-08-06T19:37:32.554Z,28.19
2018-08-06T19:40:03.247Z,28.10
2018-08-06T19:42:39.194Z,28.03
2018-08-06T19:45:09.929Z,27.96
2018-08-06T19:47:41.062Z,27.89
2018-08-06T19:50:17.118Z,27.82
2018-08-06T19:52:47.894Z,27.75
2018-08-06T19:55:23.757Z,27.67
2018-08-06T19:57:54.478Z,27.59
2018-08-06T20:00:26.279Z,27.49
2018-08-06T20:02:57.050Z,27.40
2018-08-06T20:05:27.732Z,27.33
2018-08-06T20:07:58.593Z,27.25
2018-08-06T20:10:29.423Z,27.17
2018-08-06T20:13:01.779Z,27.11
2018-08-06T20:15:32.531Z,27.08
2018-08-06T20:18:04.278Z,27.00
2018-08-06T20:20:34.948Z,26.95
2018-08-06T20:23:05.830Z,26.89
2018-08-06T20:25:36.534Z,26.82
2018-08-06T20:28:07.334Z,26.72
2018-08-06T20:30:38.081Z,26.65
2018-08-06T20:33:08.869Z,26.58
2018-08-06T20:35:39.610Z,26.47
2018-08-06T20:38:10.329Z,26.37
2018-08-06T20:40:40.989Z,26.33
2018-08-06T20:43:11.688Z,26.29
2018-08-06T20:45:42.417Z,26.26
2018-08-06T20:48:13.118Z,26.20
2018-08-06T20:50:43.854Z,26.14
2018-08-06T20:53:14.551Z,26.06
2018-08-06T20:55:45.242Z,25.96
2018-08-06T20:58:15.923Z,25.99
2018-08-06T21:00:46.689Z,25.91
2018-08-06T21:03:17.363Z,25.87
2018-08-06T21:05:48.080Z,25.83
2018-08-06T21:08:18.735Z,25.78
2018-08-06T21:10:49.491Z,25.73
2018-08-06T21:13:20.219Z,25.69
2018-08-06T21:15:51.250Z,25.60
2018-08-06T21:18:21.863Z,25.53
2018-08-06T21:20:52.545Z,25.49
2018-08-06T21:23:23.265Z,25.40
2018-08-06T21:25:56.798Z,25.33
2018-08-06T21:28:27.454Z,25.27
2018-08-06T21:30:58.174Z,25.23
2018-08-06T21:33:28.859Z,25.16
2018-08-06T21:35:59.553Z,25.11
2018-08-06T21:38:36.781Z,25.07
2018-08-06T21:41:08.473Z,25.03
2018-08-06T21:43:39.482Z,25.00
2018-08-06T21:46:11.613Z,24.98
2018-08-06T21:48:42.615Z,24.91
2018-08-06T21:51:13.348Z,24.82
2018-08-06T21:53:44.015Z,24.77
2018-08-06T21:56:14.651Z,24.74
2018-08-06T21:58:45.432Z,24.72
2018-08-06T22:01:16.192Z,24.67
2018-08-06T22:03:46.894Z,24.63
2018-08-06T22:06:17.538Z,24.59
2018-08-06T22:08:48.259Z,24.50
2018-08-06T22:11:19.166Z,24.45
2018-08-06T22:13:49.929Z,24.42
2018-08-06T22:16:20.683Z,24.38
2018-08-06T22:18:51.366Z,24.43
2018-08-06T22:21:22.057Z,24.56
2018-08-06T22:23:52.787Z,24.58
2018-08-06T22:26:23.439Z,24.54
2018-08-06T22:28:54.126Z,24.42
2018-08-06T22:31:25.129Z,24.31
2018-08-06T22:33:55.822Z,24.57
2018-08-06T22:36:26.985Z,24.65
2018-08-06T22:38:57.724Z,24.50
2018-08-06T22:41:29.073Z,24.46
2018-08-06T22:43:59.914Z,24.36
2018-08-06T22:46:30.587Z,24.24
2018-08-06T22:49:01.266Z,24.18
2018-08-06T22:51:31.896Z,24.13
2018-08-06T22:54:02.542Z,24.15
2018-08-06T22:56:33.218Z,24.24
2018-08-06T22:59:03.954Z,24.27
2018-08-06T23:01:34.566Z,24.22
2018-08-06T23:04:05.573Z,24.18
2018-08-06T23:06:36.249Z,24.05
2018-08-06T23:09:11.389Z,23.90
2018-08-06T23:11:42.529Z,23.82
2018-08-06T23:14:13.218Z,23.72
2018-08-06T23:16:43.895Z,23.71
2018-08-06T23:19:14.549Z,23.80
2018-08-06T23:21:45.201Z,23.79
2018-08-06T23:24:16.795Z,23.79
2018-08-06T23:26:47.448Z,23.86
2018-08-06T23:29:19.038Z,23.85
2018-08-06T23:31:49.671Z,23.77
2018-08-06T23:34:20.380Z,23.65
2018-08-06T23:36:51.070Z,23.50
2018-08-06T23:39:21.743Z,23.41
2018-08-06T23:41:52.508Z,23.40
2018-08-06T23:44:23.237Z,23.34
2018-08-06T23:46:53.954Z,23.22
2018-08-06T23:49:24.629Z,23.16
2018-08-06T23:51:55.404Z,23.09
2018-08-06T23:54:26.074Z,23.07
2018-08-06T23:56:56.752Z,23.08
2018-08-06T23:59:27.413Z,23.11
